TimeCDT,TemperatureF,Dew PointF,Humidity,Sea Level PressureIn,VisibilityMPH,Wind Direction,Wind SpeedMPH,Gust SpeedMPH,PrecipitationIn,Events,Conditions,WindDirDegrees,DateUTC
12:52 AM,46.0,39.9,79,29.67,-9999.0,South,8.1,-,N/A,,Unknown,170,2012-10-08 05:52:00
1:52 AM,46.0,39.9,79,29.64,-9999.0,South,8.1,-,N/A,,Unknown,190,2012-10-08 06:52:00
2:52 AM,46.0,39.9,79,29.60,-9999.0,South,3.5,-,N/A,,Unknown,170,2012-10-08 07:52:00
3:52 AM,46.9,41.0,80,29.57,-9999.0,WSW,3.5,-,N/A,,Unknown,240,2012-10-08 08:52:00
4:52 AM,48.9,39.9,71,29.55,-9999.0,West,9.2,-,N/A,,Unknown,270,2012-10-08 09:52:00
5:52 AM,48.0,41.0,77,29.58,-9999.0,NW,19.6,-,N/A,,Unknown,310,2012-10-08 10:52:00
6:52 AM,46.0,41.0,83,29.61,-9999.0,NW,20.7,-,N/A,,Unknown,320,2012-10-08 11:52:00
7:52 AM,45.0,39.9,82,29.64,-9999.0,NW,18.4,27.6,N/A,,Unknown,310,2012-10-08 12:52:00
8:52 AM,45.0,39.9,82,29.66,-9999.0,NW,18.4,33.4,N/A,,Unknown,310,2012-10-08 13:52:00
9:52 AM,46.0,39.9,79,29.70,-9999.0,NW,20.7,31.1,N/A,,Unknown,310,2012-10-08 14:52:00
10:52 AM,48.9,39.9,71,29.69,-9999.0,NW,21.9,36.8,N/A,,Unknown,320,2012-10-08 15:52:00
11:52 AM,50.0,37.9,63,29.70,-9999.0,NNW,26.5,38.0,N/A,,Unknown,330,2012-10-08 16:52:00
12:52 PM,52.0,36.0,54,29.70,-9999.0,NW,25.3,38.0,N/A,,Unknown,320,2012-10-08 17:52:00
1:52 PM,51.1,34.0,52,29.70,-9999.0,NW,20.7,38.0,N/A,,Unknown,310,2012-10-08 18:52:00
2:52 PM,55.0,30.9,40,29.68,-9999.0,WNW,24.2,35.7,N/A,,Unknown,300,2012-10-08 19:52:00
3:52 PM,52.0,30.0,43,29.70,-9999.0,NW,27.6,36.8,N/A,,Unknown,310,2012-10-08 20:52:00
4:52 PM,50.0,28.9,44,29.71,-9999.0,NW,24.2,40.3,N/A,,Unknown,320,2012-10-08 21:52:00
5:52 PM,48.9,28.0,44,29.73,-9999.0,NW,23.0,36.8,N/A,,Unknown,310,2012-10-08 22:52:00
7:52 PM,45.0,30.9,58,29.77,-9999.0,NW,17.3,29.9,N/A,,Unknown,310,2012-10-09 00:52:00
8:52 PM,42.1,30.9,65,29.79,-9999.0,WNW,12.7,-,N/A,,Unknown,290,2012-10-09 01:52:00
9:52 PM,39.9,26.1,58,29.80,-9999.0,WNW,17.3,-,N/A,,Unknown,300,2012-10-09 02:52:00
10:52 PM,37.0,25.0,62,29.81,-9999.0,WNW,17.3,-,N/A,,Unknown,300,2012-10-09 03:52:00
11:52 PM,36.0,25.0,64,29.81,-9999.0,WNW,15.0,-,N/A,,Unknown,290,2012-10-09 04:52:00